sensor_id;sensor_type;location;lat;lon;timestamp;P1;durP1;ratioP1;P2;durP2;ratioP2
46561;SDS011;32289;42.688;23.330;2023-06-14T00:02:23;12.50;;;3.40;;
46561;SDS011;32289;42.688;23.330;2023-06-14T00:06:03;4.72;;;3.28;;
46561;SDS011;32289;42.688;23.330;2023-06-14T00:09:45;4.22;;;2.63;;
46561;SDS011;32289;42.688;23.330;2023-06-14T00:13:25;6.75;;;3.30;;
46561;SDS011;32289;42.688;23.330;2023-06-14T00:17:07;5.53;;;2.80;;
46561;SDS011;32289;42.688;23.330;2023-06-14T00:20:48;5.88;;;3.20;;
46561;SDS011;32289;42.688;23.330;2023-06-14T00:24:30;6.15;;;3.20;;
46561;SDS011;32289;42.688;23.330;2023-06-14T00:28:10;8.93;;;3.20;;
46561;SDS011;32289;42.688;23.330;2023-06-14T00:31:51;8.75;;;3.15;;
46561;SDS011;32289;42.688;23.330;2023-06-14T00:35:32;5.10;;;2.90;;
46561;SDS011;32289;42.688;23.330;2023-06-14T00:39:12;6.68;;;3.20;;
46561;SDS011;32289;42.688;23.330;2023-06-14T00:42:53;4.70;;;2.63;;
46561;SDS011;32289;42.688;23.330;2023-06-14T00:46:34;4.72;;;2.92;;
46561;SDS011;32289;42.688;23.330;2023-06-14T00:50:15;4.93;;;2.63;;
46561;SDS011;32289;42.688;23.330;2023-06-14T00:53:55;7.47;;;2.65;;
46561;SDS011;32289;42.688;23.330;2023-06-14T00:57:36;6.30;;;3.00;;
46561;SDS011;32289;42.688;23.330;2023-06-14T01:01:17;4.63;;;2.78;;
46561;SDS011;32289;42.688;23.330;2023-06-14T01:04:58;6.68;;;2.83;;
46561;SDS011;32289;42.688;23.330;2023-06-14T01:08:47;7.20;;;2.58;;
46561;SDS011;32289;42.688;23.330;2023-06-14T01:13:10;6.38;;;3.20;;
46561;SDS011;32289;42.688;23.330;2023-06-14T01:16:52;6.07;;;2.70;;
46561;SDS011;32289;42.688;23.330;2023-06-14T01:20:33;7.63;;;3.63;;
46561;SDS011;32289;42.688;23.330;2023-06-14T01:24:16;4.97;;;2.85;;
46561;SDS011;32289;42.688;23.330;2023-06-14T01:28:00;6.68;;;2.67;;
46561;SDS011;32289;42.688;23.330;2023-06-14T01:31:43;5.85;;;3.10;;
46561;SDS011;32289;42.688;23.330;2023-06-14T01:35:25;5.47;;;2.42;;
46561;SDS011;32289;42.688;23.330;2023-06-14T01:39:06;4.60;;;2.80;;
46561;SDS011;32289;42.688;23.330;2023-06-14T01:42:47;6.63;;;2.72;;
46561;SDS011;32289;42.688;23.330;2023-06-14T01:46:30;6.45;;;3.20;;
46561;SDS011;32289;42.688;23.330;2023-06-14T01:50:10;6.30;;;3.33;;
46561;SDS011;32289;42.688;23.330;2023-06-14T01:53:51;5.05;;;3.05;;
46561;SDS011;32289;42.688;23.330;2023-06-14T01:57:32;5.82;;;3.05;;
46561;SDS011;32289;42.688;23.330;2023-06-14T02:01:13;5.38;;;3.28;;
46561;SDS011;32289;42.688;23.330;2023-06-14T02:04:56;5.65;;;3.17;;
46561;SDS011;32289;42.688;23.330;2023-06-14T02:08:37;5.47;;;3.25;;
46561;SDS011;32289;42.688;23.330;2023-06-14T02:12:18;4.53;;;3.08;;
46561;SDS011;32289;42.688;23.330;2023-06-14T02:15:58;5.53;;;3.10;;
46561;SDS011;32289;42.688;23.330;2023-06-14T02:19:39;5.65;;;3.05;;
46561;SDS011;32289;42.688;23.330;2023-06-14T02:23:20;8.02;;;4.90;;
46561;SDS011;32289;42.688;23.330;2023-06-14T02:27:01;5.97;;;3.00;;
46561;SDS011;32289;42.688;23.330;2023-06-14T02:30:42;5.60;;;3.45;;
46561;SDS011;32289;42.688;23.330;2023-06-14T02:34:25;5.03;;;3.17;;
46561;SDS011;32289;42.688;23.330;2023-06-14T02:38:06;6.65;;;3.40;;
46561;SDS011;32289;42.688;23.330;2023-06-14T02:41:46;7.60;;;3.17;;
46561;SDS011;32289;42.688;23.330;2023-06-14T02:45:27;7.90;;;3.17;;
46561;SDS011;32289;42.688;23.330;2023-06-14T02:49:10;5.38;;;3.22;;
46561;SDS011;32289;42.688;23.330;2023-06-14T02:52:51;5.85;;;2.67;;
46561;SDS011;32289;42.688;23.330;2023-06-14T02:56:32;5.90;;;2.97;;
46561;SDS011;32289;42.688;23.330;2023-06-14T03:00:13;5.57;;;3.17;;
46561;SDS011;32289;42.688;23.330;2023-06-14T03:03:54;5.25;;;3.42;;
46561;SDS011;32289;42.688;23.330;2023-06-14T03:07:35;8.10;;;3.00;;
46561;SDS011;32289;42.688;23.330;2023-06-14T03:11:20;11.15;;;3.97;;
46561;SDS011;32289;42.688;23.330;2023-06-14T03:15:02;10.73;;;3.92;;
46561;SDS011;32289;42.688;23.330;2023-06-14T03:18:43;5.43;;;3.05;;
46561;SDS011;32289;42.688;23.330;2023-06-14T03:22:24;6.68;;;3.58;;
46561;SDS011;32289;42.688;23.330;2023-06-14T03:26:05;6.45;;;3.63;;
46561;SDS011;32289;42.688;23.330;2023-06-14T03:29:46;7.30;;;3.80;;
46561;SDS011;32289;42.688;23.330;2023-06-14T03:33:26;4.93;;;3.15;;
46561;SDS011;32289;42.688;23.330;2023-06-14T03:37:07;6.28;;;3.42;;
46561;SDS011;32289;42.688;23.330;2023-06-14T03:40:48;9.45;;;3.75;;
46561;SDS011;32289;42.688;23.330;2023-06-14T03:44:29;6.57;;;3.42;;
46561;SDS011;32289;42.688;23.330;2023-06-14T03:48:10;7.85;;;3.38;;
46561;SDS011;32289;42.688;23.330;2023-06-14T03:51:51;5.45;;;3.22;;
46561;SDS011;32289;42.688;23.330;2023-06-14T03:55:32;7.68;;;3.65;;
46561;SDS011;32289;42.688;23.330;2023-06-14T03:59:13;6.32;;;3.97;;
46561;SDS011;32289;42.688;23.330;2023-06-14T04:02:54;5.93;;;3.65;;
46561;SDS011;32289;42.688;23.330;2023-06-14T04:06:34;6.32;;;3.80;;
46561;SDS011;32289;42.688;23.330;2023-06-14T04:10:15;5.82;;;3.47;;
46561;SDS011;32289;42.688;23.330;2023-06-14T04:13:56;7.50;;;3.38;;
46561;SDS011;32289;42.688;23.330;2023-06-14T04:17:37;7.45;;;3.65;;
46561;SDS011;32289;42.688;23.330;2023-06-14T04:21:18;6.05;;;3.63;;
46561;SDS011;32289;42.688;23.330;2023-06-14T04:24:59;5.63;;;3.35;;
46561;SDS011;32289;42.688;23.330;2023-06-14T04:28:39;5.88;;;3.33;;
46561;SDS011;32289;42.688;23.330;2023-06-14T04:32:20;8.38;;;3.40;;
46561;SDS011;32289;42.688;23.330;2023-06-14T04:36:01;7.35;;;3.67;;
46561;SDS011;32289;42.688;23.330;2023-06-14T04:39:42;6.65;;;4.03;;
46561;SDS011;32289;42.688;23.330;2023-06-14T04:43:25;6.30;;;4.03;;
46561;SDS011;32289;42.688;23.330;2023-06-14T04:47:07;6.53;;;3.42;;
46561;SDS011;32289;42.688;23.330;2023-06-14T04:50:48;5.90;;;3.17;;
46561;SDS011;32289;42.688;23.330;2023-06-14T04:54:32;7.15;;;3.72;;
46561;SDS011;32289;42.688;23.330;2023-06-14T04:58:14;8.00;;;4.30;;
46561;SDS011;32289;42.688;23.330;2023-06-14T05:01:54;7.38;;;3.80;;
46561;SDS011;32289;42.688;23.330;2023-06-14T05:05:36;7.90;;;4.10;;
46561;SDS011;32289;42.688;23.330;2023-06-14T05:09:22;6.53;;;4.22;;
46561;SDS011;32289;42.688;23.330;2023-06-14T05:13:03;8.18;;;4.97;;
46561;SDS011;32289;42.688;23.330;2023-06-14T05:16:46;6.97;;;4.60;;
46561;SDS011;32289;42.688;23.330;2023-06-14T05:20:28;6.10;;;4.22;;
46561;SDS011;32289;42.688;23.330;2023-06-14T05:24:10;6.47;;;4.10;;
46561;SDS011;32289;42.688;23.330;2023-06-14T05:27:51;8.00;;;4.18;;
46561;SDS011;32289;42.688;23.330;2023-06-14T05:31:31;8.65;;;4.68;;
46561;SDS011;32289;42.688;23.330;2023-06-14T05:35:12;11.48;;;4.82;;
46561;SDS011;32289;42.688;23.330;2023-06-14T05:38:54;8.55;;;5.38;;
46561;SDS011;32289;42.688;23.330;2023-06-14T05:42:39;8.73;;;4.80;;
46561;SDS011;32289;42.688;23.330;2023-06-14T05:46:20;10.50;;;6.10;;
46561;SDS011;32289;42.688;23.330;2023-06-14T05:50:02;15.68;;;7.15;;
46561;SDS011;32289;42.688;23.330;2023-06-14T05:53:43;9.43;;;5.55;;
46561;SDS011;32289;42.688;23.330;2023-06-14T05:57:23;10.02;;;6.45;;
46561;SDS011;32289;42.688;23.330;2023-06-14T06:01:04;9.27;;;5.43;;
46561;SDS011;32289;42.688;23.330;2023-06-14T06:04:45;11.13;;;6.50;;
46561;SDS011;32289;42.688;23.330;2023-06-14T06:08:29;9.00;;;5.32;;
46561;SDS011;32289;42.688;23.330;2023-06-14T06:12:10;12.20;;;6.38;;
46561;SDS011;32289;42.688;23.330;2023-06-14T06:15:50;10.90;;;5.70;;
46561;SDS011;32289;42.688;23.330;2023-06-14T06:19:31;10.48;;;5.25;;
46561;SDS011;32289;42.688;23.330;2023-06-14T06:23:12;13.23;;;5.85;;
46561;SDS011;32289;42.688;23.330;2023-06-14T06:26:53;13.48;;;7.20;;
46561;SDS011;32289;42.688;23.330;2023-06-14T06:30:34;14.50;;;6.22;;
46561;SDS011;32289;42.688;23.330;2023-06-14T06:34:15;13.00;;;6.93;;
46561;SDS011;32289;42.688;23.330;2023-06-14T06:37:56;10.38;;;6.35;;
46561;SDS011;32289;42.688;23.330;2023-06-14T06:41:37;10.15;;;7.35;;
46561;SDS011;32289;42.688;23.330;2023-06-14T06:45:19;34.88;;;15.30;;
46561;SDS011;32289;42.688;23.330;2023-06-14T06:49:00;9.63;;;6.03;;
46561;SDS011;32289;42.688;23.330;2023-06-14T06:52:41;7.68;;;5.85;;
46561;SDS011;32289;42.688;23.330;2023-06-14T06:56:21;15.85;;;6.55;;
46561;SDS011;32289;42.688;23.330;2023-06-14T07:00:03;11.82;;;7.22;;
46561;SDS011;32289;42.688;23.330;2023-06-14T07:03:48;12.75;;;6.78;;
46561;SDS011;32289;42.688;23.330;2023-06-14T07:07:29;11.65;;;7.05;;
46561;SDS011;32289;42.688;23.330;2023-06-14T07:11:09;11.63;;;7.25;;
46561;SDS011;32289;42.688;23.330;2023-06-14T07:14:50;9.05;;;5.63;;
46561;SDS011;32289;42.688;23.330;2023-06-14T07:18:31;9.38;;;6.13;;
46561;SDS011;32289;42.688;23.330;2023-06-14T07:22:12;11.68;;;6.15;;
46561;SDS011;32289;42.688;23.330;2023-06-14T07:25:52;10.00;;;7.13;;
46561;SDS011;32289;42.688;23.330;2023-06-14T07:29:33;11.85;;;7.65;;
46561;SDS011;32289;42.688;23.330;2023-06-14T07:33:14;11.13;;;6.05;;
46561;SDS011;32289;42.688;23.330;2023-06-14T07:36:54;11.00;;;6.82;;
46561;SDS011;32289;42.688;23.330;2023-06-14T07:40:35;9.30;;;6.97;;
46561;SDS011;32289;42.688;23.330;2023-06-14T07:44:16;8.88;;;7.03;;
46561;SDS011;32289;42.688;23.330;2023-06-14T07:47:57;11.68;;;7.63;;
46561;SDS011;32289;42.688;23.330;2023-06-14T07:51:38;11.90;;;7.80;;
46561;SDS011;32289;42.688;23.330;2023-06-14T07:55:19;16.33;;;7.40;;
46561;SDS011;32289;42.688;23.330;2023-06-14T07:59:00;9.60;;;6.70;;
46561;SDS011;32289;42.688;23.330;2023-06-14T08:02:41;9.98;;;6.85;;
46561;SDS011;32289;42.688;23.330;2023-06-14T08:06:22;9.02;;;6.50;;
46561;SDS011;32289;42.688;23.330;2023-06-14T08:10:04;9.25;;;6.15;;
46561;SDS011;32289;42.688;23.330;2023-06-14T08:13:45;8.55;;;6.45;;
46561;SDS011;32289;42.688;23.330;2023-06-14T08:17:26;8.00;;;6.20;;
46561;SDS011;32289;42.688;23.330;2023-06-14T08:21:06;8.32;;;6.68;;
46561;SDS011;32289;42.688;23.330;2023-06-14T08:24:47;7.47;;;6.65;;
46561;SDS011;32289;42.688;23.330;2023-06-14T08:28:28;8.38;;;6.70;;
46561;SDS011;32289;42.688;23.330;2023-06-14T08:32:08;10.27;;;6.72;;
46561;SDS011;32289;42.688;23.330;2023-06-14T08:35:50;8.85;;;6.75;;
46561;SDS011;32289;42.688;23.330;2023-06-14T08:39:31;9.10;;;6.28;;
46561;SDS011;32289;42.688;23.330;2023-06-14T08:43:11;8.60;;;6.18;;
46561;SDS011;32289;42.688;23.330;2023-06-14T08:46:52;10.40;;;7.13;;
46561;SDS011;32289;42.688;23.330;2023-06-14T08:50:37;9.82;;;7.70;;
46561;SDS011;32289;42.688;23.330;2023-06-14T08:54:21;13.10;;;8.52;;
46561;SDS011;32289;42.688;23.330;2023-06-14T08:58:04;9.65;;;5.85;;
46561;SDS011;32289;42.688;23.330;2023-06-14T09:01:45;8.50;;;5.95;;
46561;SDS011;32289;42.688;23.330;2023-06-14T09:05:26;7.65;;;5.32;;
46561;SDS011;32289;42.688;23.330;2023-06-14T09:09:07;10.48;;;5.40;;
46561;SDS011;32289;42.688;23.330;2023-06-14T09:12:48;7.07;;;5.13;;
46561;SDS011;32289;42.688;23.330;2023-06-14T09:16:28;6.53;;;5.43;;
46561;SDS011;32289;42.688;23.330;2023-06-14T09:20:11;6.85;;;5.25;;
46561;SDS011;32289;42.688;23.330;2023-06-14T09:23:58;14.93;;;11.07;;
46561;SDS011;32289;42.688;23.330;2023-06-14T09:27:40;11.13;;;7.13;;
46561;SDS011;32289;42.688;23.330;2023-06-14T09:31:22;7.60;;;6.32;;
46561;SDS011;32289;42.688;23.330;2023-06-14T09:35:02;9.50;;;6.43;;
46561;SDS011;32289;42.688;23.330;2023-06-14T09:38:54;11.15;;;8.52;;
46561;SDS011;32289;42.688;23.330;2023-06-14T09:42:40;7.28;;;5.53;;
46561;SDS011;32289;42.688;23.330;2023-06-14T09:46:21;9.95;;;6.50;;
46561;SDS011;32289;42.688;23.330;2023-06-14T09:50:02;7.03;;;6.05;;
46561;SDS011;32289;42.688;23.330;2023-06-14T09:53:43;8.77;;;6.50;;
46561;SDS011;32289;42.688;23.330;2023-06-14T09:57:24;8.52;;;6.10;;
46561;SDS011;32289;42.688;23.330;2023-06-14T10:01:08;8.40;;;5.38;;
46561;SDS011;32289;42.688;23.330;2023-06-14T10:04:51;7.22;;;5.93;;
46561;SDS011;32289;42.688;23.330;2023-06-14T10:08:37;7.00;;;5.50;;
46561;SDS011;32289;42.688;23.330;2023-06-14T10:12:19;7.85;;;6.82;;
46561;SDS011;32289;42.688;23.330;2023-06-14T10:19:54;7.38;;;5.70;;
46561;SDS011;32289;42.688;23.330;2023-06-14T10:23:41;9.82;;;5.35;;
46561;SDS011;32289;42.688;23.330;2023-06-14T10:27:24;7.65;;;5.53;;
46561;SDS011;32289;42.688;23.330;2023-06-14T10:31:11;6.95;;;5.88;;
46561;SDS011;32289;42.688;23.330;2023-06-14T10:34:58;6.93;;;5.35;;
46561;SDS011;32289;42.688;23.330;2023-06-14T10:42:51;6.43;;;5.25;;
46561;SDS011;32289;42.688;23.330;2023-06-14T10:46:32;6.78;;;5.22;;
46561;SDS011;32289;42.688;23.330;2023-06-14T10:50:13;9.93;;;5.93;;
46561;SDS011;32289;42.688;23.330;2023-06-14T10:53:55;7.88;;;5.75;;
46561;SDS011;32289;42.688;23.330;2023-06-14T10:57:40;8.43;;;6.13;;
46561;SDS011;32289;42.688;23.330;2023-06-14T11:02:11;9.15;;;6.00;;
46561;SDS011;32289;42.688;23.330;2023-06-14T11:09:27;7.85;;;6.07;;
46561;SDS011;32289;42.688;23.330;2023-06-14T11:13:36;9.77;;;6.50;;
46561;SDS011;32289;42.688;23.330;2023-06-14T11:17:23;7.68;;;5.10;;
46561;SDS011;32289;42.688;23.330;2023-06-14T11:21:04;10.00;;;7.63;;
46561;SDS011;32289;42.688;23.330;2023-06-14T11:24:45;6.63;;;5.00;;
46561;SDS011;32289;42.688;23.330;2023-06-14T11:28:35;7.05;;;5.25;;
46561;SDS011;32289;42.688;23.330;2023-06-14T11:32:20;8.32;;;5.32;;
46561;SDS011;32289;42.688;23.330;2023-06-14T11:36:03;7.13;;;5.35;;
46561;SDS011;32289;42.688;23.330;2023-06-14T11:39:48;7.97;;;5.85;;
46561;SDS011;32289;42.688;23.330;2023-06-14T11:43:29;5.78;;;4.78;;
46561;SDS011;32289;42.688;23.330;2023-06-14T11:47:11;5.88;;;4.75;;
46561;SDS011;32289;42.688;23.330;2023-06-14T11:50:52;7.07;;;5.22;;
46561;SDS011;32289;42.688;23.330;2023-06-14T11:54:33;6.82;;;5.15;;
46561;SDS011;32289;42.688;23.330;2023-06-14T11:58:14;8.70;;;4.20;;
46561;SDS011;32289;42.688;23.330;2023-06-14T12:01:55;6.50;;;4.72;;
46561;SDS011;32289;42.688;23.330;2023-06-14T12:05:36;8.68;;;4.63;;
46561;SDS011;32289;42.688;23.330;2023-06-14T12:09:17;10.38;;;6.45;;
46561;SDS011;32289;42.688;23.330;2023-06-14T12:12:58;6.80;;;4.82;;
46561;SDS011;32289;42.688;23.330;2023-06-14T12:16:41;7.20;;;4.47;;
46561;SDS011;32289;42.688;23.330;2023-06-14T12:20:21;6.53;;;3.90;;
46561;SDS011;32289;42.688;23.330;2023-06-14T12:24:03;6.80;;;4.70;;
46561;SDS011;32289;42.688;23.330;2023-06-14T12:27:44;8.23;;;4.80;;
46561;SDS011;32289;42.688;23.330;2023-06-14T12:31:26;6.57;;;4.35;;
46561;SDS011;32289;42.688;23.330;2023-06-14T12:35:07;5.30;;;4.22;;
46561;SDS011;32289;42.688;23.330;2023-06-14T12:38:48;6.20;;;4.72;;
46561;SDS011;32289;42.688;23.330;2023-06-14T12:42:30;6.07;;;4.15;;
46561;SDS011;32289;42.688;23.330;2023-06-14T12:46:11;6.75;;;4.00;;
46561;SDS011;32289;42.688;23.330;2023-06-14T12:49:51;6.88;;;3.78;;
46561;SDS011;32289;42.688;23.330;2023-06-14T12:53:32;7.30;;;3.83;;
46561;SDS011;32289;42.688;23.330;2023-06-14T12:57:13;5.80;;;3.28;;
46561;SDS011;32289;42.688;23.330;2023-06-14T13:00:53;6.25;;;4.40;;
46561;SDS011;32289;42.688;23.330;2023-06-14T13:04:34;5.13;;;3.65;;
46561;SDS011;32289;42.688;23.330;2023-06-14T13:08:15;8.18;;;4.75;;
46561;SDS011;32289;42.688;23.330;2023-06-14T13:11:56;4.15;;;3.00;;
46561;SDS011;32289;42.688;23.330;2023-06-14T13:15:36;6.00;;;3.92;;
46561;SDS011;32289;42.688;23.330;2023-06-14T13:19:18;4.93;;;3.45;;
46561;SDS011;32289;42.688;23.330;2023-06-14T13:22:58;7.60;;;3.60;;
46561;SDS011;32289;42.688;23.330;2023-06-14T13:26:39;4.93;;;3.72;;
46561;SDS011;32289;42.688;23.330;2023-06-14T13:30:20;10.18;;;5.80;;
46561;SDS011;32289;42.688;23.330;2023-06-14T13:34:02;5.72;;;3.67;;
46561;SDS011;32289;42.688;23.330;2023-06-14T13:37:42;5.28;;;3.55;;
46561;SDS011;32289;42.688;23.330;2023-06-14T13:41:23;5.82;;;3.63;;
46561;SDS011;32289;42.688;23.330;2023-06-14T15:06:05;7.03;;;3.20;;
46561;SDS011;32289;42.688;23.330;2023-06-14T16:40:31;7.95;;;4.78;;
46561;SDS011;32289;42.688;23.330;2023-06-14T20:07:23;7.70;;;3.10;;
46561;SDS011;32289;42.688;23.330;2023-06-14T20:11:04;5.13;;;2.78;;
46561;SDS011;32289;42.688;23.330;2023-06-14T20:14:45;5.32;;;2.35;;
46561;SDS011;32289;42.688;23.330;2023-06-14T20:22:36;5.22;;;2.40;;
46561;SDS011;32289;42.688;23.330;2023-06-14T20:26:20;3.55;;;1.83;;
46561;SDS011;32289;42.688;23.330;2023-06-14T21:01:11;4.72;;;2.00;;
46561;SDS011;32289;42.688;23.330;2023-06-14T23:25:26;5.20;;;3.25;;
46561;SDS011;32289;42.688;23.330;2023-06-14T23:29:07;5.93;;;3.47;;
46561;SDS011;32289;42.688;23.330;2023-06-14T23:32:48;7.53;;;3.92;;
46561;SDS011;32289;42.688;23.330;2023-06-14T23:36:30;6.05;;;3.42;;
46561;SDS011;32289;42.688;23.330;2023-06-14T23:40:17;6.65;;;3.50;;
46561;SDS011;32289;42.688;23.330;2023-06-14T23:43:58;9.82;;;4.32;;
46561;SDS011;32289;42.688;23.330;2023-06-14T23:47:45;6.95;;;4.18;;
46561;SDS011;32289;42.688;23.330;2023-06-14T23:51:25;7.70;;;3.80;;
46561;SDS011;32289;42.688;23.330;2023-06-14T23:55:06;8.38;;;4.15;;
